sensor_id;sensor_type;location;lat;lon;timestamp;pressure;altitude;pressure_sealevel;temperature;humidity
18918;BME280;9591;52.742;13.650;2022-08-19T00:00:54;100460.03;;;20.02;100.00
18918;BME280;9591;52.742;13.650;2022-08-19T00:03:42;100465.31;;;20.03;100.00
18918;BME280;9591;52.742;13.650;2022-08-19T00:06:29;100464.84;;;20.09;100.00
18918;BME280;9591;52.742;13.650;2022-08-19T00:09:18;100453.66;;;20.26;100.00
18918;BME280;9591;52.742;13.650;2022-08-19T00:12:05;100449.09;;;20.40;100.00
18918;BME280;9591;52.742;13.650;2022-08-19T00:14:52;100451.97;;;20.37;100.00
18918;BME280;9591;52.742;13.650;2022-08-19T00:17:43;100456.34;;;20.26;100.00
18918;BME280;9591;52.742;13.650;2022-08-19T00:20:31;100460.81;;;20.15;100.00
18918;BME280;9591;52.742;13.650;2022-08-19T00:23:18;100462.25;;;20.08;100.00
18918;BME280;9591;52.742;13.650;2022-08-19T00:26:05;100456.25;;;20.04;100.00
18918;BME280;9591;52.742;13.650;2022-08-19T00:28:52;100472.63;;;20.01;100.00
18918;BME280;9591;52.742;13.650;2022-08-19T00:31:39;100480.69;;;20.01;100.00
18918;BME280;9591;52.742;13.650;2022-08-19T00:34:30;100477.38;;;19.97;100.00
18918;BME280;9591;52.742;13.650;2022-08-19T00:37:16;100491.66;;;19.98;100.00
18918;BME280;9591;52.742;13.650;2022-08-19T00:40:06;100485.53;;;19.96;100.00
18918;BME280;9591;52.742;13.650;2022-08-19T00:42:55;100480.44;;;19.93;100.00
18918;BME280;9591;52.742;13.650;2022-08-19T00:45:42;100484.22;;;19.90;100.00
18918;BME280;9591;52.742;13.650;2022-08-19T00:48:29;100498.75;;;19.99;100.00
18918;BME280;9591;52.742;13.650;2022-08-19T00:51:17;100509.00;;;19.94;100.00
18918;BME280;9591;52.742;13.650;2022-08-19T00:54:04;100506.94;;;19.97;100.00
18918;BME280;9591;52.742;13.650;2022-08-19T00:56:52;100502.16;;;19.90;100.00
18918;BME280;9591;52.742;13.650;2022-08-19T00:59:41;100515.22;;;19.94;100.00
18918;BME280;9591;52.742;13.650;2022-08-19T01:02:46;100511.31;;;19.87;100.00
18918;BME280;9591;52.742;13.650;2022-08-19T01:05:34;100498.00;;;19.86;100.00
18918;BME280;9591;52.742;13.650;2022-08-19T01:08:23;100493.06;;;19.80;100.00
18918;BME280;9591;52.742;13.650;2022-08-19T01:11:09;100487.81;;;19.78;100.00
18918;BME280;9591;52.742;13.650;2022-08-19T01:13:56;100488.56;;;19.80;100.00
18918;BME280;9591;52.742;13.650;2022-08-19T01:16:45;100469.78;;;19.68;100.00
18918;BME280;9591;52.742;13.650;2022-08-19T01:19:35;100494.16;;;19.77;100.00
18918;BME280;9591;52.742;13.650;2022-08-19T01:22:30;100476.38;;;19.63;100.00
18918;BME280;9591;52.742;13.650;2022-08-19T01:25:24;100497.28;;;19.71;100.00
18918;BME280;9591;52.742;13.650;2022-08-19T01:28:19;100491.28;;;19.68;100.00
18918;BME280;9591;52.742;13.650;2022-08-19T01:31:21;100494.72;;;19.70;100.00
18918;BME280;9591;52.742;13.650;2022-08-19T01:34:12;100494.72;;;19.70;100.00
18918;BME280;9591;52.742;13.650;2022-08-19T01:36:59;100496.31;;;19.72;100.00
18918;BME280;9591;52.742;13.650;2022-08-19T01:39:50;100493.22;;;19.66;100.00
18918;BME280;9591;52.742;13.650;2022-08-19T01:42:37;100496.66;;;19.68;100.00
18918;BME280;9591;52.742;13.650;2022-08-19T01:45:28;100490.31;;;19.69;100.00
18918;BME280;9591;52.742;13.650;2022-08-19T01:48:18;100486.22;;;19.76;100.00
18918;BME280;9591;52.742;13.650;2022-08-19T01:51:08;100506.28;;;19.83;100.00
18918;BME280;9591;52.742;13.650;2022-08-19T01:54:00;100517.44;;;19.89;100.00
18918;BME280;9591;52.742;13.650;2022-08-19T01:56:49;100503.47;;;19.84;100.00
18918;BME280;9591;52.742;13.650;2022-08-19T01:59:39;100489.16;;;20.08;100.00
18918;BME280;9591;52.742;13.650;2022-08-19T02:02:28;100485.53;;;19.96;100.00
18918;BME280;9591;52.742;13.650;2022-08-19T02:05:15;100462.53;;;19.81;100.00
18918;BME280;9591;52.742;13.650;2022-08-19T02:08:03;100467.50;;;19.74;100.00
18918;BME280;9591;52.742;13.650;2022-08-19T02:10:50;100458.06;;;19.69;100.00
18918;BME280;9591;52.742;13.650;2022-08-19T02:13:39;100454.06;;;19.74;100.00
18918;BME280;9591;52.742;13.650;2022-08-19T02:16:26;100462.25;;;19.73;100.00
18918;BME280;9591;52.742;13.650;2022-08-19T02:19:13;100452.25;;;19.75;100.00
18918;BME280;9591;52.742;13.650;2022-08-19T02:22:00;100456.72;;;19.87;100.00
18918;BME280;9591;52.742;13.650;2022-08-19T02:24:46;100451.16;;;19.77;100.00
18918;BME280;9591;52.742;13.650;2022-08-19T02:27:34;100437.50;;;19.80;100.00
18918;BME280;9591;52.742;13.650;2022-08-19T02:30:22;100426.31;;;19.97;100.00
18918;BME280;9591;52.742;13.650;2022-08-19T02:33:09;100414.03;;;20.17;100.00
18918;BME280;9591;52.742;13.650;2022-08-19T02:35:56;100428.38;;;19.94;100.00
18918;BME280;9591;52.742;13.650;2022-08-19T02:38:44;100422.03;;;19.95;100.00
18918;BME280;9591;52.742;13.650;2022-08-19T02:41:39;100429.84;;;19.87;100.00
18918;BME280;9591;52.742;13.650;2022-08-19T02:44:26;100443.97;;;19.78;100.00
18918;BME280;9591;52.742;13.650;2022-08-19T02:47:17;100447.34;;;19.69;100.00
18918;BME280;9591;52.742;13.650;2022-08-19T02:50:05;100436.47;;;19.70;100.00
18918;BME280;9591;52.742;13.650;2022-08-19T02:52:52;100429.56;;;19.79;100.00
18918;BME280;9591;52.742;13.650;2022-08-19T02:55:43;100430.47;;;19.67;100.00
18918;BME280;9591;52.742;13.650;2022-08-19T02:58:31;100431.38;;;19.78;100.00
18918;BME280;9591;52.742;13.650;2022-08-19T03:01:23;100435.56;;;19.82;100.00
18918;BME280;9591;52.742;13.650;2022-08-19T03:04:12;100429.56;;;19.79;100.00
18918;BME280;9591;52.742;13.650;2022-08-19T03:06:59;100428.88;;;19.88;100.00
18918;BME280;9591;52.742;13.650;2022-08-19T03:09:55;100432.25;;;19.79;100.00
18918;BME280;9591;52.742;13.650;2022-08-19T03:12:41;100430.25;;;19.70;100.00
18918;BME280;9591;52.742;13.650;2022-08-19T03:15:29;100432.81;;;19.71;100.00
18918;BME280;9591;52.742;13.650;2022-08-19T03:18:16;100436.94;;;19.64;100.00
18918;BME280;9591;52.742;13.650;2022-08-19T03:21:05;100447.28;;;19.57;100.00
18918;BME280;9591;52.742;13.650;2022-08-19T03:23:57;100445.22;;;19.61;100.00
18918;BME280;9591;52.742;13.650;2022-08-19T03:26:47;100455.97;;;19.61;100.00
18918;BME280;9591;52.742;13.650;2022-08-19T03:29:36;100452.81;;;19.67;100.00
18918;BME280;9591;52.742;13.650;2022-08-19T03:32:28;100438.69;;;19.76;100.00
18918;BME280;9591;52.742;13.650;2022-08-19T03:35:17;100444.41;;;19.72;100.00
18918;BME280;9591;52.742;13.650;2022-08-19T03:38:06;100436.66;;;19.80;100.00
18918;BME280;9591;52.742;13.650;2022-08-19T03:40:53;100428.59;;;19.80;100.00
18918;BME280;9591;52.742;13.650;2022-08-19T03:43:41;100413.78;;;19.74;100.00
18918;BME280;9591;52.742;13.650;2022-08-19T03:46:29;100425.16;;;19.78;100.00
18918;BME280;9591;52.742;13.650;2022-08-19T03:49:17;100414.28;;;19.79;100.00
18918;BME280;9591;52.742;13.650;2022-08-19T03:52:05;100422.97;;;19.83;100.00
18918;BME280;9591;52.742;13.650;2022-08-19T03:54:54;100429.56;;;19.79;100.00
18918;BME280;9591;52.742;13.650;2022-08-19T03:57:40;100431.03;;;19.83;100.00
18918;BME280;9591;52.742;13.650;2022-08-19T04:00:27;100444.66;;;19.69;100.00
18918;BME280;9591;52.742;13.650;2022-08-19T04:03:15;100459.91;;;19.68;100.00
18918;BME280;9591;52.742;13.650;2022-08-19T04:06:10;100463.16;;;19.60;100.00
18918;BME280;9591;52.742;13.650;2022-08-19T04:08:58;100452.19;;;19.63;100.00
18918;BME280;9591;52.742;13.650;2022-08-19T04:11:54;100453.28;;;19.61;100.00
18918;BME280;9591;52.742;13.650;2022-08-19T04:14:40;100449.69;;;19.73;100.00
18918;BME280;9591;52.742;13.650;2022-08-19T04:17:27;100442.75;;;19.82;100.00
18918;BME280;9591;52.742;13.650;2022-08-19T04:20:17;100448.41;;;19.90;100.00
18918;BME280;9591;52.742;13.650;2022-08-19T04:23:09;100436.19;;;19.86;100.00
18918;BME280;9591;52.742;13.650;2022-08-19T04:25:56;100431.56;;;19.88;100.00
18918;BME280;9591;52.742;13.650;2022-08-19T04:29:03;100432.25;;;19.79;100.00
18918;BME280;9591;52.742;13.650;2022-08-19T04:31:58;100450.81;;;19.82;100.00
18918;BME280;9591;52.742;13.650;2022-08-19T04:34:54;100450.47;;;19.86;100.00
18918;BME280;9591;52.742;13.650;2022-08-19T04:37:49;100444.31;;;19.73;100.00
18918;BME280;9591;52.742;13.650;2022-08-19T04:40:40;100446.38;;;19.70;100.00
18918;BME280;9591;52.742;13.650;2022-08-19T04:43:45;100464.75;;;19.63;100.00
18918;BME280;9591;52.742;13.650;2022-08-19T04:46:35;100468.53;;;19.60;100.00
18918;BME280;9591;52.742;13.650;2022-08-19T04:49:35;100455.78;;;19.75;100.00
18918;BME280;9591;52.742;13.650;2022-08-19T04:52:22;100446.72;;;19.65;100.00
18918;BME280;9591;52.742;13.650;2022-08-19T04:55:10;100447.91;;;19.61;100.00
18918;BME280;9591;52.742;13.650;2022-08-19T04:57:58;100430.09;;;19.47;100.00
18918;BME280;9591;52.742;13.650;2022-08-19T05:00:51;100416.53;;;19.61;100.00
18918;BME280;9591;52.742;13.650;2022-08-19T05:03:39;100413.44;;;19.55;100.00
18918;BME280;9591;52.742;13.650;2022-08-19T05:06:27;100417.16;;;19.65;100.00
18918;BME280;9591;52.742;13.650;2022-08-19T05:09:19;100420.19;;;19.60;100.00
18918;BME280;9591;52.742;13.650;2022-08-19T05:12:07;100422.69;;;19.75;100.00
18918;BME280;9591;52.742;13.650;2022-08-19T05:14:55;100411.56;;;19.68;100.00
18918;BME280;9591;52.742;13.650;2022-08-19T05:17:44;100410.47;;;19.71;100.00
18918;BME280;9591;52.742;13.650;2022-08-19T05:20:55;100396.91;;;19.72;100.00
18918;BME280;9591;52.742;13.650;2022-08-19T05:23:59;100398.78;;;19.83;100.00
18918;BME280;9591;52.742;13.650;2022-08-19T05:26:50;100387.59;;;19.89;100.00
18918;BME280;9591;52.742;13.650;2022-08-19T05:29:39;100381.97;;;19.92;100.00
18918;BME280;9591;52.742;13.650;2022-08-19T05:32:27;100393.84;;;20.12;100.00
18918;BME280;9591;52.742;13.650;2022-08-19T05:35:15;100401.53;;;20.05;100.00
18918;BME280;9591;52.742;13.650;2022-08-19T05:38:07;100381.00;;;19.93;100.00
18918;BME280;9591;52.742;13.650;2022-08-19T05:40:55;100402.75;;;20.01;100.00
18918;BME280;9591;52.742;13.650;2022-08-19T05:43:42;100398.84;;;20.05;100.00
18918;BME280;9591;52.742;13.650;2022-08-19T05:46:31;100397.44;;;20.35;100.00
18918;BME280;9591;52.742;13.650;2022-08-19T05:49:18;100398.34;;;20.46;100.00
18918;BME280;9591;52.742;13.650;2022-08-19T05:52:07;100387.75;;;20.67;100.00
18918;BME280;9591;52.742;13.650;2022-08-19T05:54:58;100402.50;;;20.84;100.00
18918;BME280;9591;52.742;13.650;2022-08-19T05:57:45;100408.50;;;20.87;100.00
18918;BME280;9591;52.742;13.650;2022-08-19T06:00:31;100399.38;;;20.79;100.00
18918;BME280;9591;52.742;13.650;2022-08-19T06:03:18;100408.25;;;20.90;100.00
18918;BME280;9591;52.742;13.650;2022-08-19T06:06:06;100409.00;;;20.92;100.00
18918;BME280;9591;52.742;13.650;2022-08-19T06:08:54;100396.63;;;21.01;100.00
18918;BME280;9591;52.742;13.650;2022-08-19T06:11:45;100401.88;;;21.14;100.00
18918;BME280;9591;52.742;13.650;2022-08-19T06:14:35;100406.41;;;21.24;100.00
18918;BME280;9591;52.742;13.650;2022-08-19T06:17:26;100405.06;;;21.30;100.00
18918;BME280;9591;52.742;13.650;2022-08-19T06:20:14;100412.53;;;21.26;100.00
18918;BME280;9591;52.742;13.650;2022-08-19T06:23:23;100413.88;;;21.32;100.00
18918;BME280;9591;52.742;13.650;2022-08-19T06:26:11;100407.88;;;21.06;100.00
18918;BME280;9591;52.742;13.650;2022-08-19T06:28:59;100412.53;;;21.04;100.00
18918;BME280;9591;52.742;13.650;2022-08-19T06:31:48;100417.78;;;21.06;100.00
18918;BME280;9591;52.742;13.650;2022-08-19T06:34:35;100413.38;;;21.16;100.00
18918;BME280;9591;52.742;13.650;2022-08-19T06:37:22;100410.56;;;21.17;100.00
18918;BME280;9591;52.742;13.650;2022-08-19T06:40:10;100406.41;;;21.24;100.00
18918;BME280;9591;52.742;13.650;2022-08-19T06:42:58;100409.00;;;21.26;100.00
18918;BME280;9591;52.742;13.650;2022-08-19T06:45:51;100402.59;;;21.38;100.00
18918;BME280;9591;52.742;13.650;2022-08-19T06:48:41;100398.94;;;21.28;100.00
18918;BME280;9591;52.742;13.650;2022-08-19T06:51:30;100409.69;;;21.39;100.00
18918;BME280;9591;52.742;13.650;2022-08-19T06:54:22;100406.88;;;21.41;100.00
18918;BME280;9591;52.742;13.650;2022-08-19T06:57:15;100413.50;;;21.37;100.00
18918;BME280;9591;52.742;13.650;2022-08-19T07:00:04;100407.38;;;21.35;100.00
18918;BME280;9591;52.742;13.650;2022-08-19T07:02:58;100406.63;;;21.44;100.00
18918;BME280;9591;52.742;13.650;2022-08-19T07:05:52;100406.03;;;21.40;100.00
18918;BME280;9591;52.742;13.650;2022-08-19T07:08:39;100410.19;;;21.44;100.00
18918;BME280;9591;52.742;13.650;2022-08-19T07:11:27;100422.19;;;21.40;100.00
18918;BME280;9591;52.742;13.650;2022-08-19T07:14:15;100424.16;;;21.38;100.00
18918;BME280;9591;52.742;13.650;2022-08-19T07:17:06;100428.78;;;21.47;100.00
18918;BME280;9591;52.742;13.650;2022-08-19T07:19:55;100442.84;;;21.51;100.00
18918;BME280;9591;52.742;13.650;2022-08-19T07:22:49;100445.94;;;21.46;100.00
18918;BME280;9591;52.742;13.650;2022-08-19T07:25:38;100446.50;;;21.61;100.00
18918;BME280;9591;52.742;13.650;2022-08-19T07:28:25;100451.09;;;21.70;100.00
18918;BME280;9591;52.742;13.650;2022-08-19T07:31:13;100457.81;;;21.76;100.00
18918;BME280;9591;52.742;13.650;2022-08-19T07:34:05;100450.84;;;21.73;100.00
18918;BME280;9591;52.742;13.650;2022-08-19T07:36:55;100462.97;;;21.79;100.00
18918;BME280;9591;52.742;13.650;2022-08-19T07:39:42;100460.00;;;21.82;100.00
18918;BME280;9591;52.742;13.650;2022-08-19T07:42:28;100462.31;;;21.86;100.00
18918;BME280;9591;52.742;13.650;2022-08-19T07:45:15;100466.34;;;21.92;100.00
18918;BME280;9591;52.742;13.650;2022-08-19T07:48:03;100458.53;;;21.89;100.00
18918;BME280;9591;52.742;13.650;2022-08-19T07:50:50;100459.50;;;21.88;100.00
18918;BME280;9591;52.742;13.650;2022-08-19T07:53:38;100453.97;;;21.89;100.00
18918;BME280;9591;52.742;13.650;2022-08-19T07:56:26;100452.84;;;22.03;100.00
18918;BME280;9591;52.742;13.650;2022-08-19T07:59:12;100457.13;;;22.06;100.00
18918;BME280;9591;52.742;13.650;2022-08-19T08:01:59;100460.19;;;22.01;100.00
18918;BME280;9591;52.742;13.650;2022-08-19T08:04:47;100466.69;;;21.99;100.00
18918;BME280;9591;52.742;13.650;2022-08-19T08:07:51;100462.78;;;22.03;100.00
18918;BME280;9591;52.742;13.650;2022-08-19T08:10:57;100464.59;;;22.13;100.00
18918;BME280;9591;52.742;13.650;2022-08-19T08:13:43;100469.19;;;22.22;100.00
18918;BME280;9591;52.742;13.650;2022-08-19T08:16:31;100469.97;;;22.13;100.00
18918;BME280;9591;52.742;13.650;2022-08-19T08:19:20;100474.16;;;22.06;100.00
18918;BME280;9591;52.742;13.650;2022-08-19T08:22:11;100484.69;;;22.09;100.00
18918;BME280;9591;52.742;13.650;2022-08-19T08:25:22;100483.72;;;22.10;100.00
18918;BME280;9591;52.742;13.650;2022-08-19T08:28:10;100484.69;;;22.09;100.00
18918;BME280;9591;52.742;13.650;2022-08-19T08:31:02;100489.72;;;22.14;100.00
18918;BME280;9591;52.742;13.650;2022-08-19T08:33:54;100492.75;;;22.20;100.00
18918;BME280;9591;52.742;13.650;2022-08-19T08:36:44;100496.69;;;22.16;100.00
18918;BME280;9591;52.742;13.650;2022-08-19T08:39:32;100509.13;;;22.29;100.00
18918;BME280;9591;52.742;13.650;2022-08-19T08:42:22;100506.44;;;22.29;100.00
18918;BME280;9591;52.742;13.650;2022-08-19T08:45:14;100502.84;;;22.39;100.00
18918;BME280;9591;52.742;13.650;2022-08-19T08:48:18;100499.94;;;22.31;100.00
18918;BME280;9591;52.742;13.650;2022-08-19T08:51:13;100501.72;;;22.42;100.00
18918;BME280;9591;52.742;13.650;2022-08-19T08:54:07;100495.97;;;22.56;100.00
18918;BME280;9591;52.742;13.650;2022-08-19T08:56:54;100490.56;;;22.77;100.00
18918;BME280;9591;52.742;13.650;2022-08-19T08:59:43;100488.13;;;22.95;100.00
18918;BME280;9591;52.742;13.650;2022-08-19T09:02:38;100487.16;;;23.26;100.00
18918;BME280;9591;52.742;13.650;2022-08-19T09:05:38;100481.06;;;23.34;100.00
18918;BME280;9591;52.742;13.650;2022-08-19T09:08:40;100481.97;;;23.53;100.00
18918;BME280;9591;52.742;13.650;2022-08-19T09:11:38;100482.03;;;23.82;100.00
18918;BME280;9591;52.742;13.650;2022-08-19T09:14:35;100492.59;;;23.95;100.00
18918;BME280;9591;52.742;13.650;2022-08-19T09:17:37;100487.31;;;24.13;100.00
18918;BME280;9591;52.742;13.650;2022-08-19T09:20:24;100490.75;;;24.34;100.00
18918;BME280;9591;52.742;13.650;2022-08-19T09:23:11;100490.03;;;24.42;100.00
18918;BME280;9591;52.742;13.650;2022-08-19T09:25:58;100486.47;;;24.51;100.00
18918;BME280;9591;52.742;13.650;2022-08-19T09:28:47;100491.28;;;24.57;100.00
18918;BME280;9591;52.742;13.650;2022-08-19T09:31:34;100497.00;;;24.44;100.00
18918;BME280;9591;52.742;13.650;2022-08-19T09:34:22;100487.31;;;24.42;100.00
18918;BME280;9591;52.742;13.650;2022-08-19T09:37:09;100492.59;;;24.34;100.00
18918;BME280;9591;52.742;13.650;2022-08-19T09:39:59;100499.44;;;24.47;100.00
18918;BME280;9591;52.742;13.650;2022-08-19T09:42:46;100495.56;;;24.50;100.00
18918;BME280;9591;52.742;13.650;2022-08-19T09:45:35;100486.91;;;24.37;100.00
18918;BME280;9591;52.742;13.650;2022-08-19T09:48:22;100495.28;;;24.53;100.00
18918;BME280;9591;52.742;13.650;2022-08-19T09:51:13;100494.16;;;24.56;100.00
18918;BME280;9591;52.742;13.650;2022-08-19T09:54:02;100498.84;;;24.34;100.00
18918;BME280;9591;52.742;13.650;2022-08-19T09:56:49;100497.88;;;24.35;100.00
18918;BME280;9591;52.742;13.650;2022-08-19T09:59:36;100486.31;;;24.52;100.00
18918;BME280;9591;52.742;13.650;2022-08-19T10:02:23;100483.16;;;24.67;100.00
18918;BME280;9591;52.742;13.650;2022-08-19T10:05:13;100492.13;;;24.77;100.00
18918;BME280;9591;52.742;13.650;2022-08-19T10:08:23;100485.94;;;25.04;100.00
18918;BME280;9591;52.742;13.650;2022-08-19T10:11:11;100488.28;;;25.16;100.00
18918;BME280;9591;52.742;13.650;2022-08-19T10:14:21;100500.69;;;25.19;100.00
18918;BME280;9591;52.742;13.650;2022-08-19T10:17:08;100489.25;;;25.25;100.00
18918;BME280;9591;52.742;13.650;2022-08-19T10:20:06;100476.66;;;25.34;100.00
18918;BME280;9591;52.742;13.650;2022-08-19T10:22:53;100479.91;;;25.37;100.00
18918;BME280;9591;52.742;13.650;2022-08-19T10:25:41;100479.66;;;25.31;100.00
18918;BME280;9591;52.742;13.650;2022-08-19T10:28:28;100478.28;;;25.17;100.00
18918;BME280;9591;52.742;13.650;2022-08-19T10:31:18;100485.78;;;24.96;100.00
18918;BME280;9591;52.742;13.650;2022-08-19T10:34:26;100481.50;;;24.93;100.00
18918;BME280;9591;52.742;13.650;2022-08-19T10:37:15;100465.53;;;25.09;100.00
18918;BME280;9591;52.742;13.650;2022-08-19T10:40:09;100466.09;;;25.31;100.00
18918;BME280;9591;52.742;13.650;2022-08-19T10:42:58;100460.25;;;25.35;100.00
18918;BME280;9591;52.742;13.650;2022-08-19T10:45:51;100466.00;;;25.23;100.00
18918;BME280;9591;52.742;13.650;2022-08-19T10:48:39;100471.56;;;25.21;100.00
18918;BME280;9591;52.742;13.650;2022-08-19T10:51:26;100462.59;;;25.21;100.00
18918;BME280;9591;52.742;13.650;2022-08-19T10:54:33;100459.13;;;25.28;100.00
18918;BME280;9591;52.742;13.650;2022-08-19T10:57:37;100457.97;;;25.31;100.00
18918;BME280;9591;52.742;13.650;2022-08-19T11:00:52;100469.72;;;25.49;100.00
18918;BME280;9591;52.742;13.650;2022-08-19T11:03:39;100454.75;;;25.45;100.00
18918;BME280;9591;52.742;13.650;2022-08-19T11:06:26;100456.41;;;25.56;100.00
18918;BME280;9591;52.742;13.650;2022-08-19T11:09:15;100456.88;;;25.51;100.00
18918;BME280;9591;52.742;13.650;2022-08-19T11:12:03;100452.16;;;25.53;100.00
18918;BME280;9591;52.742;13.650;2022-08-19T11:14:50;100459.78;;;25.40;100.00
18918;BME280;9591;52.742;13.650;2022-08-19T11:17:39;100460.59;;;25.23;100.00
18918;BME280;9591;52.742;13.650;2022-08-19T11:20:28;100464.25;;;24.94;100.00
18918;BME280;9591;52.742;13.650;2022-08-19T11:23:15;100476.53;;;24.98;100.00
18918;BME280;9591;52.742;13.650;2022-08-19T11:26:02;100476.56;;;24.79;100.00
18918;BME280;9591;52.742;13.650;2022-08-19T11:28:49;100484.53;;;24.90;100.00
18918;BME280;9591;52.742;13.650;2022-08-19T11:31:41;100475.00;;;24.76;100.00
18918;BME280;9591;52.742;13.650;2022-08-19T11:34:30;100481.88;;;24.71;100.00
18918;BME280;9591;52.742;13.650;2022-08-19T11:37:18;100477.59;;;24.68;100.00
18918;BME280;9591;52.742;13.650;2022-08-19T11:40:06;100483.00;;;24.68;100.00
18918;BME280;9591;52.742;13.650;2022-08-19T11:42:53;100472.75;;;24.72;100.00
18918;BME280;9591;52.742;13.650;2022-08-19T11:45:43;100474.00;;;24.77;100.00
18918;BME280;9591;52.742;13.650;2022-08-19T11:48:31;100480.69;;;24.83;100.00
18918;BME280;9591;52.742;13.650;2022-08-19T11:51:22;100484.53;;;24.90;100.00
18918;BME280;9591;52.742;13.650;2022-08-19T11:54:10;100488.22;;;24.89;100.00
18918;BME280;9591;52.742;13.650;2022-08-19T11:56:57;100484.81;;;24.87;100.00
18918;BME280;9591;52.742;13.650;2022-08-19T11:59:48;100491.09;;;24.88;100.00
18918;BME280;9591;52.742;13.650;2022-08-19T12:02:35;100498.38;;;24.77;100.00
18918;BME280;9591;52.742;13.650;2022-08-19T12:05:22;100491.53;;;24.73;100.00
18918;BME280;9591;52.742;13.650;2022-08-19T12:08:10;100503.81;;;24.58;100.00
18918;BME280;9591;52.742;13.650;2022-08-19T12:10:58;100509.81;;;24.52;100.00
18918;BME280;9591;52.742;13.650;2022-08-19T12:13:46;100513.25;;;24.44;100.00
18918;BME280;9591;52.742;13.650;2022-08-19T12:16:33;100508.41;;;24.29;100.00
18918;BME280;9591;52.742;13.650;2022-08-19T12:19:25;100511.53;;;24.24;100.00
18918;BME280;9591;52.742;13.650;2022-08-19T12:22:12;100506.69;;;24.08;100.00
18918;BME280;9591;52.742;13.650;2022-08-19T12:25:00;100514.34;;;23.94;100.00
18918;BME280;9591;52.742;13.650;2022-08-19T12:27:48;100513.75;;;23.71;100.00
18918;BME280;9591;52.742;13.650;2022-08-19T12:30:43;100509.16;;;23.62;100.00
18918;BME280;9591;52.742;13.650;2022-08-19T12:33:31;100503.50;;;23.74;100.00
18918;BME280;9591;52.742;13.650;2022-08-19T12:36:19;100512.34;;;23.86;100.00
18918;BME280;9591;52.742;13.650;2022-08-19T12:39:09;100505.38;;;23.93;100.00
18918;BME280;9591;52.742;13.650;2022-08-19T12:41:59;100503.53;;;23.94;100.00
18918;BME280;9591;52.742;13.650;2022-08-19T12:44:47;100508.72;;;24.26;100.00
18918;BME280;9591;52.742;13.650;2022-08-19T12:47:35;100514.66;;;24.39;100.00
18918;BME280;9591;52.742;13.650;2022-08-19T12:50:25;100523.63;;;24.49;100.00
18918;BME280;9591;52.742;13.650;2022-08-19T12:53:12;100515.22;;;24.62;100.00
18918;BME280;9591;52.742;13.650;2022-08-19T12:55:59;100522.16;;;24.83;100.00
18918;BME280;9591;52.742;13.650;2022-08-19T12:58:47;100521.56;;;25.09;100.00
18918;BME280;9591;52.742;13.650;2022-08-19T13:01:37;100519.41;;;25.12;100.00
18918;BME280;9591;52.742;13.650;2022-08-19T13:04:23;100527.06;;;25.17;100.00
18918;BME280;9591;52.742;13.650;2022-08-19T13:07:10;100524.03;;;25.30;100.00
18918;BME280;9591;52.742;13.650;2022-08-19T13:09:57;100523.28;;;25.37;100.00
18918;BME280;9591;52.742;13.650;2022-08-19T13:12:45;100497.38;;;25.25;100.00
18918;BME280;9591;52.742;13.650;2022-08-19T13:15:35;100506.72;;;25.40;100.00
18918;BME280;9591;52.742;13.650;2022-08-19T13:18:22;100510.38;;;25.49;100.00
18918;BME280;9591;52.742;13.650;2022-08-19T13:21:10;100505.31;;;25.64;100.00
18918;BME280;9591;52.742;13.650;2022-08-19T13:23:58;100500.56;;;25.75;100.00
18918;BME280;9591;52.742;13.650;2022-08-19T13:26:45;100508.03;;;25.91;100.00
18918;BME280;9591;52.742;13.650;2022-08-19T13:29:32;100505.72;;;25.96;100.00
18918;BME280;9591;52.742;13.650;2022-08-19T13:32:50;100506.06;;;26.01;100.00
18918;BME280;9591;52.742;13.650;2022-08-19T13:35:57;100497.47;;;26.24;100.00
18918;BME280;9591;52.742;13.650;2022-08-19T13:38:46;100501.16;;;26.32;100.00
18918;BME280;9591;52.742;13.650;2022-08-19T13:41:33;100504.56;;;26.34;100.00
18918;BME280;9591;52.742;13.650;2022-08-19T13:44:20;100506.88;;;26.47;100.00
18918;BME280;9591;52.742;13.650;2022-08-19T13:47:07;100500.50;;;26.56;100.00
18918;BME280;9591;52.742;13.650;2022-08-19T13:49:56;100499.75;;;26.46;100.00
18918;BME280;9591;52.742;13.650;2022-08-19T13:52:43;100503.28;;;26.29;100.00
18918;BME280;9591;52.742;13.650;2022-08-19T13:55:30;100497.63;;;26.22;100.00
18918;BME280;9591;52.742;13.650;2022-08-19T13:58:17;100493.06;;;26.05;100.00
18918;BME280;9591;52.742;13.650;2022-08-19T14:01:04;100489.25;;;26.16;100.00
18918;BME280;9591;52.742;13.650;2022-08-19T14:03:51;100476.88;;;25.95;100.00
18918;BME280;9591;52.742;13.650;2022-08-19T14:06:39;100489.81;;;25.84;100.00
18918;BME280;9591;52.742;13.650;2022-08-19T14:09:26;100485.63;;;25.89;100.00
18918;BME280;9591;52.742;13.650;2022-08-19T14:12:12;100484.84;;;25.79;100.00
18918;BME280;9591;52.742;13.650;2022-08-19T14:15:13;100495.19;;;25.66;100.00
18918;BME280;9591;52.742;13.650;2022-08-19T14:18:00;100495.22;;;25.29;100.00
18918;BME280;9591;52.742;13.650;2022-08-19T14:20:47;100493.56;;;25.18;100.00
18918;BME280;9591;52.742;13.650;2022-08-19T14:23:35;100488.91;;;25.10;100.00
18918;BME280;9591;52.742;13.650;2022-08-19T14:26:22;100495.22;;;24.92;100.00
18918;BME280;9591;52.742;13.650;2022-08-19T14:29:09;100494.97;;;24.75;100.00
18918;BME280;9591;52.742;13.650;2022-08-19T14:31:56;100487.69;;;24.76;100.00
18918;BME280;9591;52.742;13.650;2022-08-19T14:34:44;100488.56;;;24.67;100.00
18918;BME280;9591;52.742;13.650;2022-08-19T14:37:33;100493.28;;;24.55;100.00